sensor_id;sensor_type;location;lat;lon;timestamp;P1;durP1;ratioP1;P2;durP2;ratioP2
70303;SDS011;57712;48.752;11.348;2024-01-30T00:00:01;24.70;;;12.45;;
70303;SDS011;57712;48.752;11.348;2024-01-30T00:02:29;25.05;;;11.82;;
70303;SDS011;57712;48.752;11.348;2024-01-30T00:04:56;23.33;;;10.80;;
70303;SDS011;57712;48.752;11.348;2024-01-30T00:07:23;23.13;;;10.50;;
70303;SDS011;57712;48.752;11.348;2024-01-30T00:09:50;24.30;;;11.15;;
70303;SDS011;57712;48.752;11.348;2024-01-30T00:12:17;20.20;;;10.35;;
70303;SDS011;57712;48.752;11.348;2024-01-30T00:14:44;20.65;;;10.65;;
70303;SDS011;57712;48.752;11.348;2024-01-30T00:17:10;19.02;;;10.30;;
70303;SDS011;57712;48.752;11.348;2024-01-30T00:19:37;22.30;;;10.82;;
70303;SDS011;57712;48.752;11.348;2024-01-30T00:22:04;22.27;;;10.57;;
70303;SDS011;57712;48.752;11.348;2024-01-30T00:24:31;21.73;;;10.05;;
70303;SDS011;57712;48.752;11.348;2024-01-30T00:26:57;22.40;;;10.93;;
70303;SDS011;57712;48.752;11.348;2024-01-30T00:29:24;20.35;;;10.10;;
70303;SDS011;57712;48.752;11.348;2024-01-30T00:31:52;22.20;;;9.60;;
70303;SDS011;57712;48.752;11.348;2024-01-30T00:34:19;19.63;;;9.70;;
70303;SDS011;57712;48.752;11.348;2024-01-30T00:36:46;20.08;;;9.73;;
70303;SDS011;57712;48.752;11.348;2024-01-30T00:39:13;21.85;;;10.43;;
70303;SDS011;57712;48.752;11.348;2024-01-30T00:41:41;23.92;;;9.88;;
70303;SDS011;57712;48.752;11.348;2024-01-30T00:44:08;21.27;;;10.02;;
70303;SDS011;57712;48.752;11.348;2024-01-30T00:46:35;22.27;;;9.68;;
70303;SDS011;57712;48.752;11.348;2024-01-30T00:49:02;19.88;;;9.75;;
70303;SDS011;57712;48.752;11.348;2024-01-30T00:51:29;23.55;;;9.98;;
70303;SDS011;57712;48.752;11.348;2024-01-30T00:53:56;21.67;;;9.32;;
70303;SDS011;57712;48.752;11.348;2024-01-30T00:56:23;20.50;;;9.60;;
70303;SDS011;57712;48.752;11.348;2024-01-30T00:58:50;18.42;;;9.02;;
70303;SDS011;57712;48.752;11.348;2024-01-30T01:01:17;20.13;;;9.50;;
70303;SDS011;57712;48.752;11.348;2024-01-30T01:03:44;21.10;;;9.50;;
70303;SDS011;57712;48.752;11.348;2024-01-30T01:06:11;19.20;;;9.52;;
70303;SDS011;57712;48.752;11.348;2024-01-30T01:08:37;19.05;;;9.35;;
70303;SDS011;57712;48.752;11.348;2024-01-30T01:11:05;18.33;;;8.88;;
70303;SDS011;57712;48.752;11.348;2024-01-30T01:13:31;18.35;;;8.20;;
70303;SDS011;57712;48.752;11.348;2024-01-30T01:15:58;18.48;;;8.73;;
70303;SDS011;57712;48.752;11.348;2024-01-30T01:18:25;18.70;;;8.68;;
70303;SDS011;57712;48.752;11.348;2024-01-30T01:20:52;21.92;;;9.30;;
70303;SDS011;57712;48.752;11.348;2024-01-30T01:23:18;18.10;;;8.40;;
70303;SDS011;57712;48.752;11.348;2024-01-30T01:25:45;19.90;;;8.98;;
70303;SDS011;57712;48.752;11.348;2024-01-30T01:28:11;14.05;;;7.97;;
70303;SDS011;57712;48.752;11.348;2024-01-30T01:30:39;17.70;;;8.63;;
70303;SDS011;57712;48.752;11.348;2024-01-30T01:33:06;16.63;;;7.78;;
70303;SDS011;57712;48.752;11.348;2024-01-30T01:35:33;16.42;;;8.60;;
70303;SDS011;57712;48.752;11.348;2024-01-30T01:38:00;19.48;;;9.13;;
70303;SDS011;57712;48.752;11.348;2024-01-30T01:40:27;18.40;;;8.80;;
70303;SDS011;57712;48.752;11.348;2024-01-30T01:42:55;16.65;;;7.45;;
70303;SDS011;57712;48.752;11.348;2024-01-30T01:45:22;16.65;;;7.80;;
70303;SDS011;57712;48.752;11.348;2024-01-30T01:47:52;16.27;;;8.30;;
70303;SDS011;57712;48.752;11.348;2024-01-30T01:50:20;15.45;;;7.90;;
70303;SDS011;57712;48.752;11.348;2024-01-30T01:52:48;15.38;;;7.72;;
70303;SDS011;57712;48.752;11.348;2024-01-30T01:55:17;18.02;;;8.45;;
70303;SDS011;57712;48.752;11.348;2024-01-30T01:57:52;17.25;;;7.90;;
70303;SDS011;57712;48.752;11.348;2024-01-30T02:00:20;16.98;;;8.50;;
70303;SDS011;57712;48.752;11.348;2024-01-30T02:02:46;17.17;;;8.02;;
70303;SDS011;57712;48.752;11.348;2024-01-30T02:05:14;15.60;;;7.75;;
70303;SDS011;57712;48.752;11.348;2024-01-30T02:07:42;15.50;;;7.72;;
70303;SDS011;57712;48.752;11.348;2024-01-30T02:10:10;16.90;;;7.45;;
70303;SDS011;57712;48.752;11.348;2024-01-30T02:12:36;16.27;;;7.85;;
70303;SDS011;57712;48.752;11.348;2024-01-30T02:15:03;17.13;;;8.10;;
70303;SDS011;57712;48.752;11.348;2024-01-30T02:17:31;15.23;;;7.90;;
70303;SDS011;57712;48.752;11.348;2024-01-30T02:19:58;15.70;;;7.88;;
70303;SDS011;57712;48.752;11.348;2024-01-30T02:22:26;14.27;;;7.78;;
70303;SDS011;57712;48.752;11.348;2024-01-30T02:24:52;14.60;;;7.25;;
70303;SDS011;57712;48.752;11.348;2024-01-30T02:27:19;15.45;;;7.38;;
70303;SDS011;57712;48.752;11.348;2024-01-30T02:29:46;14.55;;;7.65;;
70303;SDS011;57712;48.752;11.348;2024-01-30T02:32:13;19.02;;;8.23;;
70303;SDS011;57712;48.752;11.348;2024-01-30T02:34:39;16.48;;;7.90;;
70303;SDS011;57712;48.752;11.348;2024-01-30T02:37:06;16.25;;;8.25;;
70303;SDS011;57712;48.752;11.348;2024-01-30T02:39:33;15.63;;;7.90;;
70303;SDS011;57712;48.752;11.348;2024-01-30T02:42:00;15.13;;;7.55;;
70303;SDS011;57712;48.752;11.348;2024-01-30T02:44:27;15.68;;;7.93;;
70303;SDS011;57712;48.752;11.348;2024-01-30T02:46:54;15.45;;;8.27;;
70303;SDS011;57712;48.752;11.348;2024-01-30T02:49:21;15.15;;;7.85;;
70303;SDS011;57712;48.752;11.348;2024-01-30T02:51:48;16.55;;;7.82;;
70303;SDS011;57712;48.752;11.348;2024-01-30T02:54:15;17.55;;;8.63;;
70303;SDS011;57712;48.752;11.348;2024-01-30T02:56:42;14.68;;;8.07;;
70303;SDS011;57712;48.752;11.348;2024-01-30T02:59:09;14.38;;;7.22;;
70303;SDS011;57712;48.752;11.348;2024-01-30T03:01:45;16.27;;;8.20;;
70303;SDS011;57712;48.752;11.348;2024-01-30T03:04:13;19.80;;;7.68;;
70303;SDS011;57712;48.752;11.348;2024-01-30T03:06:44;15.93;;;7.80;;
70303;SDS011;57712;48.752;11.348;2024-01-30T03:09:12;16.33;;;7.60;;
70303;SDS011;57712;48.752;11.348;2024-01-30T03:11:39;16.15;;;8.10;;
70303;SDS011;57712;48.752;11.348;2024-01-30T03:14:06;16.35;;;7.53;;
70303;SDS011;57712;48.752;11.348;2024-01-30T03:16:34;17.70;;;7.85;;
70303;SDS011;57712;48.752;11.348;2024-01-30T03:19:01;16.90;;;8.05;;
70303;SDS011;57712;48.752;11.348;2024-01-30T03:21:29;14.18;;;7.32;;
70303;SDS011;57712;48.752;11.348;2024-01-30T03:23:56;15.73;;;8.55;;
70303;SDS011;57712;48.752;11.348;2024-01-30T03:26:23;15.65;;;7.80;;
70303;SDS011;57712;48.752;11.348;2024-01-30T03:28:50;17.88;;;8.40;;
70303;SDS011;57712;48.752;11.348;2024-01-30T03:31:17;14.43;;;7.55;;
70303;SDS011;57712;48.752;11.348;2024-01-30T03:33:44;15.38;;;7.93;;
70303;SDS011;57712;48.752;11.348;2024-01-30T03:36:11;17.73;;;7.95;;
70303;SDS011;57712;48.752;11.348;2024-01-30T03:38:39;15.30;;;7.40;;
70303;SDS011;57712;48.752;11.348;2024-01-30T03:41:07;15.18;;;7.68;;
70303;SDS011;57712;48.752;11.348;2024-01-30T03:43:35;14.23;;;7.35;;
70303;SDS011;57712;48.752;11.348;2024-01-30T03:46:02;17.58;;;8.20;;
70303;SDS011;57712;48.752;11.348;2024-01-30T03:48:30;16.90;;;8.27;;
70303;SDS011;57712;48.752;11.348;2024-01-30T03:50:56;15.52;;;7.38;;
70303;SDS011;57712;48.752;11.348;2024-01-30T03:53:23;17.52;;;8.27;;
70303;SDS011;57712;48.752;11.348;2024-01-30T03:55:50;19.38;;;8.70;;
70303;SDS011;57712;48.752;11.348;2024-01-30T03:58:17;16.63;;;8.10;;
70303;SDS011;57712;48.752;11.348;2024-01-30T04:00:43;19.38;;;8.68;;
70303;SDS011;57712;48.752;11.348;2024-01-30T04:03:11;17.30;;;8.15;;
70303;SDS011;57712;48.752;11.348;2024-01-30T04:05:38;22.95;;;8.90;;
70303;SDS011;57712;48.752;11.348;2024-01-30T04:08:04;21.25;;;8.57;;
70303;SDS011;57712;48.752;11.348;2024-01-30T04:10:31;20.85;;;8.93;;
70303;SDS011;57712;48.752;11.348;2024-01-30T04:12:58;20.85;;;8.45;;
70303;SDS011;57712;48.752;11.348;2024-01-30T04:15:24;20.35;;;8.80;;
70303;SDS011;57712;48.752;11.348;2024-01-30T04:17:51;19.02;;;7.93;;
70303;SDS011;57712;48.752;11.348;2024-01-30T04:20:18;20.60;;;8.88;;
70303;SDS011;57712;48.752;11.348;2024-01-30T04:22:45;18.80;;;8.70;;
70303;SDS011;57712;48.752;11.348;2024-01-30T04:25:13;18.77;;;8.45;;
70303;SDS011;57712;48.752;11.348;2024-01-30T04:27:40;20.63;;;8.52;;
70303;SDS011;57712;48.752;11.348;2024-01-30T04:30:07;17.65;;;8.07;;
70303;SDS011;57712;48.752;11.348;2024-01-30T04:32:34;16.58;;;7.72;;
70303;SDS011;57712;48.752;11.348;2024-01-30T04:35:01;17.73;;;8.68;;
70303;SDS011;57712;48.752;11.348;2024-01-30T04:37:31;17.48;;;7.70;;
70303;SDS011;57712;48.752;11.348;2024-01-30T04:39:57;22.92;;;8.88;;
70303;SDS011;57712;48.752;11.348;2024-01-30T04:42:24;21.65;;;9.57;;
70303;SDS011;57712;48.752;11.348;2024-01-30T04:44:51;21.10;;;8.77;;
70303;SDS011;57712;48.752;11.348;2024-01-30T04:47:17;20.55;;;8.23;;
70303;SDS011;57712;48.752;11.348;2024-01-30T04:49:44;20.85;;;8.32;;
70303;SDS011;57712;48.752;11.348;2024-01-30T04:52:11;17.75;;;8.13;;
70303;SDS011;57712;48.752;11.348;2024-01-30T04:54:38;18.98;;;8.18;;
70303;SDS011;57712;48.752;11.348;2024-01-30T04:57:05;18.33;;;8.50;;
70303;SDS011;57712;48.752;11.348;2024-01-30T04:59:35;16.73;;;8.13;;
70303;SDS011;57712;48.752;11.348;2024-01-30T05:02:03;18.98;;;8.73;;
70303;SDS011;57712;48.752;11.348;2024-01-30T05:04:29;20.60;;;8.88;;
70303;SDS011;57712;48.752;11.348;2024-01-30T05:06:56;16.75;;;8.75;;
70303;SDS011;57712;48.752;11.348;2024-01-30T05:09:23;17.63;;;7.72;;
70303;SDS011;57712;48.752;11.348;2024-01-30T05:11:49;19.52;;;8.65;;
70303;SDS011;57712;48.752;11.348;2024-01-30T05:14:16;20.60;;;8.52;;
70303;SDS011;57712;48.752;11.348;2024-01-30T05:16:44;18.83;;;8.68;;
70303;SDS011;57712;48.752;11.348;2024-01-30T05:19:13;21.08;;;8.77;;
70303;SDS011;57712;48.752;11.348;2024-01-30T05:21:41;19.70;;;8.50;;
70303;SDS011;57712;48.752;11.348;2024-01-30T05:24:08;15.85;;;7.72;;
70303;SDS011;57712;48.752;11.348;2024-01-30T05:26:36;20.60;;;8.85;;
70303;SDS011;57712;48.752;11.348;2024-01-30T05:29:03;20.65;;;8.40;;
70303;SDS011;57712;48.752;11.348;2024-01-30T05:31:30;23.13;;;9.23;;
70303;SDS011;57712;48.752;11.348;2024-01-30T05:33:57;16.98;;;7.40;;
70303;SDS011;57712;48.752;11.348;2024-01-30T05:36:24;16.95;;;8.70;;
70303;SDS011;57712;48.752;11.348;2024-01-30T05:38:50;20.08;;;8.45;;
70303;SDS011;57712;48.752;11.348;2024-01-30T05:41:18;21.88;;;8.70;;
70303;SDS011;57712;48.752;11.348;2024-01-30T05:43:45;19.83;;;8.98;;
70303;SDS011;57712;48.752;11.348;2024-01-30T05:46:11;20.65;;;9.65;;
70303;SDS011;57712;48.752;11.348;2024-01-30T05:48:38;20.05;;;8.20;;
70303;SDS011;57712;48.752;11.348;2024-01-30T05:51:06;17.88;;;8.45;;
70303;SDS011;57712;48.752;11.348;2024-01-30T05:53:34;18.27;;;9.05;;
70303;SDS011;57712;48.752;11.348;2024-01-30T05:56:01;21.00;;;10.10;;
70303;SDS011;57712;48.752;11.348;2024-01-30T05:58:28;22.83;;;8.95;;
70303;SDS011;57712;48.752;11.348;2024-01-30T06:00:55;21.58;;;9.60;;
70303;SDS011;57712;48.752;11.348;2024-01-30T06:03:22;22.33;;;10.02;;
70303;SDS011;57712;48.752;11.348;2024-01-30T06:05:49;21.58;;;10.10;;
70303;SDS011;57712;48.752;11.348;2024-01-30T06:08:15;21.65;;;10.07;;
70303;SDS011;57712;48.752;11.348;2024-01-30T06:10:42;22.83;;;9.77;;
70303;SDS011;57712;48.752;11.348;2024-01-30T06:13:09;21.17;;;10.40;;
70303;SDS011;57712;48.752;11.348;2024-01-30T06:15:36;21.65;;;10.30;;
70303;SDS011;57712;48.752;11.348;2024-01-30T06:18:02;22.00;;;9.52;;
70303;SDS011;57712;48.752;11.348;2024-01-30T06:20:29;35.72;;;26.33;;
70303;SDS011;57712;48.752;11.348;2024-01-30T06:22:56;29.60;;;20.55;;
70303;SDS011;57712;48.752;11.348;2024-01-30T06:25:23;23.95;;;11.68;;
70303;SDS011;57712;48.752;11.348;2024-01-30T06:27:50;24.48;;;10.48;;
70303;SDS011;57712;48.752;11.348;2024-01-30T06:30:17;22.23;;;10.80;;
70303;SDS011;57712;48.752;11.348;2024-01-30T06:32:44;20.45;;;11.20;;
70303;SDS011;57712;48.752;11.348;2024-01-30T06:35:10;19.75;;;10.27;;
70303;SDS011;57712;48.752;11.348;2024-01-30T06:37:37;23.42;;;11.68;;
70303;SDS011;57712;48.752;11.348;2024-01-30T06:40:04;25.45;;;13.05;;
70303;SDS011;57712;48.752;11.348;2024-01-30T06:42:31;18.58;;;10.13;;
70303;SDS011;57712;48.752;11.348;2024-01-30T06:44:58;23.08;;;11.15;;
70303;SDS011;57712;48.752;11.348;2024-01-30T06:47:24;23.70;;;11.23;;
70303;SDS011;57712;48.752;11.348;2024-01-30T06:49:51;22.83;;;11.50;;
70303;SDS011;57712;48.752;11.348;2024-01-30T06:52:19;23.73;;;11.80;;
70303;SDS011;57712;48.752;11.348;2024-01-30T06:54:46;22.92;;;11.05;;
70303;SDS011;57712;48.752;11.348;2024-01-30T06:57:13;19.58;;;10.77;;
70303;SDS011;57712;48.752;11.348;2024-01-30T06:59:40;17.00;;;10.52;;
70303;SDS011;57712;48.752;11.348;2024-01-30T07:02:10;23.73;;;10.55;;
70303;SDS011;57712;48.752;11.348;2024-01-30T07:04:37;22.63;;;11.82;;
70303;SDS011;57712;48.752;11.348;2024-01-30T07:07:06;19.58;;;10.52;;
70303;SDS011;57712;48.752;11.348;2024-01-30T07:09:38;18.48;;;10.23;;
70303;SDS011;57712;48.752;11.348;2024-01-30T07:12:06;19.35;;;10.68;;
70303;SDS011;57712;48.752;11.348;2024-01-30T07:14:33;19.38;;;10.48;;
70303;SDS011;57712;48.752;11.348;2024-01-30T07:17:00;20.10;;;9.90;;
70303;SDS011;57712;48.752;11.348;2024-01-30T07:19:28;20.70;;;10.35;;
70303;SDS011;57712;48.752;11.348;2024-01-30T07:21:55;21.55;;;10.15;;
70303;SDS011;57712;48.752;11.348;2024-01-30T07:24:21;21.48;;;10.13;;
70303;SDS011;57712;48.752;11.348;2024-01-30T07:26:48;20.20;;;9.70;;
70303;SDS011;57712;48.752;11.348;2024-01-30T07:29:15;21.63;;;10.05;;
70303;SDS011;57712;48.752;11.348;2024-01-30T07:31:41;20.73;;;9.63;;
70303;SDS011;57712;48.752;11.348;2024-01-30T07:34:08;22.42;;;9.57;;
70303;SDS011;57712;48.752;11.348;2024-01-30T07:36:38;17.77;;;9.15;;
70303;SDS011;57712;48.752;11.348;2024-01-30T07:39:05;20.88;;;10.18;;
70303;SDS011;57712;48.752;11.348;2024-01-30T07:41:31;21.73;;;11.23;;
70303;SDS011;57712;48.752;11.348;2024-01-30T07:43:59;24.38;;;13.15;;
70303;SDS011;57712;48.752;11.348;2024-01-30T07:46:26;21.58;;;12.45;;
70303;SDS011;57712;48.752;11.348;2024-01-30T07:48:53;25.40;;;13.27;;
70303;SDS011;57712;48.752;11.348;2024-01-30T07:51:21;19.75;;;11.05;;
70303;SDS011;57712;48.752;11.348;2024-01-30T07:53:47;21.48;;;10.98;;
70303;SDS011;57712;48.752;11.348;2024-01-30T07:56:14;21.15;;;12.18;;
70303;SDS011;57712;48.752;11.348;2024-01-30T07:58:42;21.50;;;11.88;;
70303;SDS011;57712;48.752;11.348;2024-01-30T08:01:09;22.30;;;13.57;;
70303;SDS011;57712;48.752;11.348;2024-01-30T08:03:36;22.42;;;13.10;;
70303;SDS011;57712;48.752;11.348;2024-01-30T08:06:03;23.27;;;14.52;;
70303;SDS011;57712;48.752;11.348;2024-01-30T08:08:33;22.70;;;13.30;;
70303;SDS011;57712;48.752;11.348;2024-01-30T08:10:59;23.15;;;14.05;;
70303;SDS011;57712;48.752;11.348;2024-01-30T08:13:27;23.15;;;13.63;;
70303;SDS011;57712;48.752;11.348;2024-01-30T08:15:54;27.15;;;14.35;;
70303;SDS011;57712;48.752;11.348;2024-01-30T08:18:20;28.80;;;14.38;;
70303;SDS011;57712;48.752;11.348;2024-01-30T08:20:47;26.17;;;15.40;;
70303;SDS011;57712;48.752;11.348;2024-01-30T08:23:15;25.90;;;15.52;;
70303;SDS011;57712;48.752;11.348;2024-01-30T08:25:42;26.65;;;15.75;;
70303;SDS011;57712;48.752;11.348;2024-01-30T08:28:08;22.17;;;14.20;;
70303;SDS011;57712;48.752;11.348;2024-01-30T08:30:35;25.80;;;13.77;;
70303;SDS011;57712;48.752;11.348;2024-01-30T08:33:02;26.48;;;16.00;;
70303;SDS011;57712;48.752;11.348;2024-01-30T08:35:29;28.67;;;16.83;;
70303;SDS011;57712;48.752;11.348;2024-01-30T08:37:58;26.38;;;15.30;;
70303;SDS011;57712;48.752;11.348;2024-01-30T08:40:24;25.15;;;13.10;;
70303;SDS011;57712;48.752;11.348;2024-01-30T08:42:51;27.75;;;16.90;;
70303;SDS011;57712;48.752;11.348;2024-01-30T08:45:18;24.52;;;13.30;;
70303;SDS011;57712;48.752;11.348;2024-01-30T08:47:45;24.15;;;14.27;;
70303;SDS011;57712;48.752;11.348;2024-01-30T08:50:12;27.38;;;13.73;;
70303;SDS011;57712;48.752;11.348;2024-01-30T08:52:39;24.33;;;13.27;;
70303;SDS011;57712;48.752;11.348;2024-01-30T08:55:06;23.20;;;12.82;;
70303;SDS011;57712;48.752;11.348;2024-01-30T08:57:33;21.65;;;12.00;;
70303;SDS011;57712;48.752;11.348;2024-01-30T08:59:59;25.38;;;12.80;;
70303;SDS011;57712;48.752;11.348;2024-01-30T09:02:26;21.33;;;12.55;;
70303;SDS011;57712;48.752;11.348;2024-01-30T09:04:54;24.85;;;12.13;;
70303;SDS011;57712;48.752;11.348;2024-01-30T09:07:21;22.30;;;12.32;;
70303;SDS011;57712;48.752;11.348;2024-01-30T09:09:47;22.45;;;12.45;;
70303;SDS011;57712;48.752;11.348;2024-01-30T09:12:15;21.92;;;12.38;;
70303;SDS011;57712;48.752;11.348;2024-01-30T09:14:42;16.75;;;11.18;;
70303;SDS011;57712;48.752;11.348;2024-01-30T09:17:08;20.15;;;11.70;;
70303;SDS011;57712;48.752;11.348;2024-01-30T09:19:35;20.85;;;12.07;;
70303;SDS011;57712;48.752;11.348;2024-01-30T09:22:02;21.27;;;12.80;;
70303;SDS011;57712;48.752;11.348;2024-01-30T09:24:30;21.30;;;11.60;;
70303;SDS011;57712;48.752;11.348;2024-01-30T09:26:56;20.17;;;11.85;;
70303;SDS011;57712;48.752;11.348;2024-01-30T09:29:23;23.05;;;12.40;;
70303;SDS011;57712;48.752;11.348;2024-01-30T09:31:50;21.92;;;11.55;;
70303;SDS011;57712;48.752;11.348;2024-01-30T09:34:17;19.52;;;11.80;;
70303;SDS011;57712;48.752;11.348;2024-01-30T09:36:44;22.88;;;13.10;;
70303;SDS011;57712;48.752;11.348;2024-01-30T09:39:11;22.13;;;11.65;;
70303;SDS011;57712;48.752;11.348;2024-01-30T09:41:41;20.27;;;10.98;;
70303;SDS011;57712;48.752;11.348;2024-01-30T09:44:12;20.05;;;11.30;;
70303;SDS011;57712;48.752;11.348;2024-01-30T09:46:41;19.88;;;12.07;;
70303;SDS011;57712;48.752;11.348;2024-01-30T09:49:08;17.60;;;10.90;;
70303;SDS011;57712;48.752;11.348;2024-01-30T09:51:35;20.33;;;11.57;;
70303;SDS011;57712;48.752;11.348;2024-01-30T09:54:02;21.75;;;12.63;;
70303;SDS011;57712;48.752;11.348;2024-01-30T09:56:29;19.65;;;12.25;;
70303;SDS011;57712;48.752;11.348;2024-01-30T09:58:56;20.53;;;12.13;;
70303;SDS011;57712;48.752;11.348;2024-01-30T10:01:22;21.70;;;11.40;;
70303;SDS011;57712;48.752;11.348;2024-01-30T10:03:50;24.80;;;12.80;;
70303;SDS011;57712;48.752;11.348;2024-01-30T10:06:19;20.67;;;11.82;;
70303;SDS011;57712;48.752;11.348;2024-01-30T10:08:49;22.33;;;11.98;;
70303;SDS011;57712;48.752;11.348;2024-01-30T10:11:15;21.25;;;12.10;;
70303;SDS011;57712;48.752;11.348;2024-01-30T10:13:42;23.17;;;13.48;;
70303;SDS011;57712;48.752;11.348;2024-01-30T10:16:09;20.40;;;11.82;;
70303;SDS011;57712;48.752;11.348;2024-01-30T10:18:36;19.50;;;11.73;;
70303;SDS011;57712;48.752;11.348;2024-01-30T10:21:03;18.80;;;11.35;;
70303;SDS011;57712;48.752;11.348;2024-01-30T10:23:29;18.33;;;11.13;;
70303;SDS011;57712;48.752;11.348;2024-01-30T10:26:02;17.00;;;10.85;;
70303;SDS011;57712;48.752;11.348;2024-01-30T10:28:30;17.70;;;11.55;;
70303;SDS011;57712;48.752;11.348;2024-01-30T10:30:57;24.10;;;14.13;;
70303;SDS011;57712;48.752;11.348;2024-01-30T10:33:31;17.58;;;11.20;;
70303;SDS011;57712;48.752;11.348;2024-01-30T10:36:02;20.13;;;11.65;;
70303;SDS011;57712;48.752;11.348;2024-01-30T10:38:34;19.50;;;11.32;;
70303;SDS011;57712;48.752;11.348;2024-01-30T10:41:01;18.73;;;10.75;;
70303;SDS011;57712;48.752;11.348;2024-01-30T10:43:30;17.77;;;10.30;;
70303;SDS011;57712;48.752;11.348;2024-01-30T10:46:08;17.52;;;11.15;;
70303;SDS011;57712;48.752;11.348;2024-01-30T10:48:41;18.43;;;10.70;;
70303;SDS011;57712;48.752;11.348;2024-01-30T10:51:11;17.05;;;10.18;;
70303;SDS011;57712;48.752;11.348;2024-01-30T10:53:39;17.45;;;10.75;;
70303;SDS011;57712;48.752;11.348;2024-01-30T10:56:07;17.75;;;11.43;;
70303;SDS011;57712;48.752;11.348;2024-01-30T10:58:34;18.15;;;10.85;;
70303;SDS011;57712;48.752;11.348;2024-01-30T11:01:01;17.13;;;11.30;;
70303;SDS011;57712;48.752;11.348;2024-01-30T11:03:29;17.65;;;10.93;;
70303;SDS011;57712;48.752;11.348;2024-01-30T11:05:58;16.70;;;10.60;;
70303;SDS011;57712;48.752;11.348;2024-01-30T11:08:26;17.80;;;11.00;;
70303;SDS011;57712;48.752;11.348;2024-01-30T11:10:56;18.77;;;10.98;;
70303;SDS011;57712;48.752;11.348;2024-01-30T11:13:27;17.50;;;10.00;;
70303;SDS011;57712;48.752;11.348;2024-01-30T11:16:00;15.48;;;10.52;;
70303;SDS011;57712;48.752;11.348;2024-01-30T11:18:32;19.13;;;10.73;;
70303;SDS011;57712;48.752;11.348;2024-01-30T11:21:00;16.85;;;10.57;;
70303;SDS011;57712;48.752;11.348;2024-01-30T11:23:30;16.38;;;10.40;;
70303;SDS011;57712;48.752;11.348;2024-01-30T11:25:57;19.07;;;10.97;;
70303;SDS011;57712;48.752;11.348;2024-01-30T11:28:24;19.00;;;10.32;;
70303;SDS011;57712;48.752;11.348;2024-01-30T11:30:51;16.42;;;10.48;;
70303;SDS011;57712;48.752;11.348;2024-01-30T11:33:27;15.38;;;9.93;;
70303;SDS011;57712;48.752;11.348;2024-01-30T11:36:00;15.95;;;10.15;;
70303;SDS011;57712;48.752;11.348;2024-01-30T11:38:28;13.83;;;10.00;;
70303;SDS011;57712;48.752;11.348;2024-01-30T11:40:55;16.45;;;10.10;;
70303;SDS011;57712;48.752;11.348;2024-01-30T11:43:23;15.60;;;9.80;;
70303;SDS011;57712;48.752;11.348;2024-01-30T11:45:50;14.00;;;9.60;;
70303;SDS011;57712;48.752;11.348;2024-01-30T11:48:18;15.80;;;9.88;;
70303;SDS011;57712;48.752;11.348;2024-01-30T11:50:45;14.53;;;9.40;;
70303;SDS011;57712;48.752;11.348;2024-01-30T11:53:12;13.70;;;9.48;;
70303;SDS011;57712;48.752;11.348;2024-01-30T11:55:39;14.98;;;9.63;;
70303;SDS011;57712;48.752;11.348;2024-01-30T11:58:06;14.88;;;9.32;;
70303;SDS011;57712;48.752;11.348;2024-01-30T12:00:33;14.77;;;10.32;;
70303;SDS011;57712;48.752;11.348;2024-01-30T12:03:02;15.50;;;9.80;;
70303;SDS011;57712;48.752;11.348;2024-01-30T12:05:30;12.95;;;9.10;;
70303;SDS011;57712;48.752;11.348;2024-01-30T12:07:57;13.90;;;9.52;;
70303;SDS011;57712;48.752;11.348;2024-01-30T12:10:26;15.10;;;9.90;;
70303;SDS011;57712;48.752;11.348;2024-01-30T12:12:54;15.13;;;10.32;;
70303;SDS011;57712;48.752;11.348;2024-01-30T12:15:21;13.63;;;8.93;;
70303;SDS011;57712;48.752;11.348;2024-01-30T12:17:49;13.32;;;9.68;;
70303;SDS011;57712;48.752;11.348;2024-01-30T12:20:19;14.68;;;9.30;;
70303;SDS011;57712;48.752;11.348;2024-01-30T12:22:47;13.93;;;9.25;;
70303;SDS011;57712;48.752;11.348;2024-01-30T12:25:15;14.32;;;8.90;;
70303;SDS011;57712;48.752;11.348;2024-01-30T12:27:44;14.13;;;9.77;;
70303;SDS011;57712;48.752;11.348;2024-01-30T12:30:12;14.95;;;9.23;;
70303;SDS011;57712;48.752;11.348;2024-01-30T12:32:41;15.70;;;10.23;;
70303;SDS011;57712;48.752;11.348;2024-01-30T12:35:10;13.57;;;9.48;;
70303;SDS011;57712;48.752;11.348;2024-01-30T12:37:42;14.88;;;9.60;;
70303;SDS011;57712;48.752;11.348;2024-01-30T12:40:10;16.17;;;9.87;;
70303;SDS011;57712;48.752;11.348;2024-01-30T12:42:43;16.48;;;10.25;;
70303;SDS011;57712;48.752;11.348;2024-01-30T12:45:16;15.70;;;9.95;;
70303;SDS011;57712;48.752;11.348;2024-01-30T12:47:48;15.50;;;10.07;;
70303;SDS011;57712;48.752;11.348;2024-01-30T12:50:15;15.23;;;9.98;;
70303;SDS011;57712;48.752;11.348;2024-01-30T12:52:43;14.40;;;9.63;;
70303;SDS011;57712;48.752;11.348;2024-01-30T12:55:15;15.45;;;9.68;;
70303;SDS011;57712;48.752;11.348;2024-01-30T12:57:42;15.55;;;9.52;;
70303;SDS011;57712;48.752;11.348;2024-01-30T13:00:09;18.23;;;9.88;;
70303;SDS011;57712;48.752;11.348;2024-01-30T13:02:36;18.00;;;9.60;;
70303;SDS011;57712;48.752;11.348;2024-01-30T13:05:04;14.50;;;9.47;;
70303;SDS011;57712;48.752;11.348;2024-01-30T13:07:31;13.88;;;9.15;;
70303;SDS011;57712;48.752;11.348;2024-01-30T13:09:58;15.57;;;9.45;;
70303;SDS011;57712;48.752;11.348;2024-01-30T13:12:30;13.98;;;9.10;;
70303;SDS011;57712;48.752;11.348;2024-01-30T13:14:58;13.63;;;9.65;;
70303;SDS011;57712;48.752;11.348;2024-01-30T13:17:27;15.00;;;9.10;;
70303;SDS011;57712;48.752;11.348;2024-01-30T13:19:54;17.50;;;10.77;;
70303;SDS011;57712;48.752;11.348;2024-01-30T13:22:27;16.23;;;9.55;;
70303;SDS011;57712;48.752;11.348;2024-01-30T13:24:54;15.52;;;9.65;;
70303;SDS011;57712;48.752;11.348;2024-01-30T13:27:21;14.95;;;9.15;;
70303;SDS011;57712;48.752;11.348;2024-01-30T13:29:47;14.40;;;9.80;;
70303;SDS011;57712;48.752;11.348;2024-01-30T13:32:14;14.07;;;8.98;;
70303;SDS011;57712;48.752;11.348;2024-01-30T13:34:41;13.77;;;8.73;;
70303;SDS011;57712;48.752;11.348;2024-01-30T13:37:08;14.73;;;9.45;;
70303;SDS011;57712;48.752;11.348;2024-01-30T13:39:35;14.30;;;9.05;;
70303;SDS011;57712;48.752;11.348;2024-01-30T13:42:05;19.53;;;11.03;;
70303;SDS011;57712;48.752;11.348;2024-01-30T13:44:31;17.02;;;11.55;;
70303;SDS011;57712;48.752;11.348;2024-01-30T13:46:58;15.35;;;9.68;;
70303;SDS011;57712;48.752;11.348;2024-01-30T13:49:25;14.95;;;9.40;;
70303;SDS011;57712;48.752;11.348;2024-01-30T13:51:55;18.30;;;9.25;;
70303;SDS011;57712;48.752;11.348;2024-01-30T13:54:23;16.53;;;9.47;;
70303;SDS011;57712;48.752;11.348;2024-01-30T13:56:50;14.40;;;9.20;;
70303;SDS011;57712;48.752;11.348;2024-01-30T13:59:16;18.85;;;10.32;;
70303;SDS011;57712;48.752;11.348;2024-01-30T14:01:50;15.85;;;9.90;;
70303;SDS011;57712;48.752;11.348;2024-01-30T14:04:20;14.70;;;9.02;;
70303;SDS011;57712;48.752;11.348;2024-01-30T14:06:47;14.40;;;9.23;;
70303;SDS011;57712;48.752;11.348;2024-01-30T14:09:26;14.18;;;8.57;;
70303;SDS011;57712;48.752;11.348;2024-01-30T14:11:52;14.88;;;9.55;;
70303;SDS011;57712;48.752;11.348;2024-01-30T14:14:19;15.10;;;10.05;;
70303;SDS011;57712;48.752;11.348;2024-01-30T14:16:46;15.40;;;9.43;;